Time;durP1;ratioP1;P1;durP2;ratioP2;P2;SDS_P1;SDS_P2;PMS_P1;PMS_P2;Temp;Humidity;BMP_temperature;BMP_pressure;BME280_temperature;BME280_humidity;BME280_pressure;Samples;Min_cycle;Max_cycle;Signal;HPM_P1;HPM_P2
2024/02/21 00:01:38;;;;;;;4.75;2.67;;;4.60;72.80;;;;;;5073525;28;20194;-68
2024/02/21 00:04:05;;;;;;;4.40;2.92;;;4.50;72.90;;;;;;5072937;28;20369;-69
2024/02/21 00:06:33;;;;;;;6.22;2.80;;;4.50;73.00;;;;;;5073363;28;20210;-68
2024/02/21 00:09:00;;;;;;;3.40;1.83;;;4.50;73.30;;;;;;5073848;28;20194;-68
2024/02/21 00:11:29;;;;;;;4.80;2.55;;;4.50;73.50;;;;;;5073384;28;20225;-69
2024/02/21 00:13:56;;;;;;;6.13;2.50;;;4.60;73.60;;;;;;5073078;28;20225;-68
2024/02/21 00:16:23;;;;;;;6.22;2.50;;;4.70;73.60;;;;;;5072573;28;20664;-68
2024/02/21 00:18:50;;;;;;;4.60;2.00;;;4.70;73.00;;;;;;5073303;28;20644;-69
2024/02/21 00:21:18;;;;;;;4.10;2.40;;;4.80;72.60;;;;;;5073315;28;20194;-68
2024/02/21 00:23:46;;;;;;;5.57;2.72;;;4.80;72.20;;;;;;5073322;28;20186;-68
2024/02/21 00:26:14;;;;;;;7.15;3.63;;;4.80;71.40;;;;;;5072722;28;20210;-68
2024/02/21 00:28:42;;;;;;;5.68;3.80;;;4.70;71.60;;;;;;5073170;28;20187;-68
2024/02/21 00:31:09;;;;;;;6.70;3.03;;;4.60;72.00;;;;;;5072898;28;20276;-68
2024/02/21 00:33:36;;;;;;;6.53;3.13;;;4.50;72.50;;;;;;5072741;28;20193;-69
2024/02/21 00:36:04;;;;;;;6.20;2.60;;;4.40;72.40;;;;;;5072431;28;20277;-68
2024/02/21 00:38:31;;;;;;;6.50;2.90;;;4.30;73.20;;;;;;5072947;28;20194;-68
2024/02/21 00:40:58;;;;;;;7.90;2.35;;;4.30;73.70;;;;;;5073116;28;20212;-68
2024/02/21 00:43:25;;;;;;;4.72;2.28;;;4.20;73.70;;;;;;5074655;28;20649;-68
2024/02/21 00:45:53;;;;;;;5.40;2.25;;;4.20;74.50;;;;;;5076324;28;20264;-67
2024/02/21 00:48:20;;;;;;;5.85;2.67;;;4.10;74.70;;;;;;5076640;28;20630;-67
2024/02/21 00:50:47;;;;;;;3.80;2.08;;;4.10;74.70;;;;;;5076696;28;20323;-68
2024/02/21 00:53:14;;;;;;;3.95;1.92;;;4.20;74.70;;;;;;5076370;28;20252;-68
2024/02/21 00:55:43;;;;;;;4.88;2.35;;;4.20;74.70;;;;;;5076579;28;20611;-68
2024/02/21 00:58:10;;;;;;;3.60;2.03;;;4.20;75.00;;;;;;5076480;28;20213;-68
2024/02/21 01:00:37;;;;;;;4.93;1.58;;;4.20;75.10;;;;;;5075910;28;20263;-68
2024/02/21 01:03:06;;;;;;;4.32;1.77;;;4.20;74.90;;;;;;5076293;28;20590;-68
2024/02/21 01:05:33;;;;;;;3.83;1.90;;;4.30;75.00;;;;;;5076005;28;20218;-68
2024/02/21 01:08:00;;;;;;;6.80;2.08;;;4.40;74.50;;;;;;5076347;28;20277;-68
2024/02/21 01:10:27;;;;;;;2.83;1.33;;;4.40;73.90;;;;;;5076242;28;20183;-69
2024/02/21 01:12:54;;;;;;;5.05;1.77;;;4.40;73.00;;;;;;5075742;28;20187;-69
2024/02/21 01:15:21;;;;;;;3.28;1.17;;;4.40;72.70;;;;;;5075971;28;20194;-68
2024/02/21 01:17:49;;;;;;;3.10;1.50;;;4.50;72.40;;;;;;5076189;28;20277;-68
2024/02/21 01:20:18;;;;;;;3.10;1.60;;;4.50;72.20;;;;;;5076231;28;20544;-68
2024/02/21 01:22:45;;;;;;;3.30;1.67;;;4.50;72.00;;;;;;5076022;28;20544;-68
2024/02/21 01:25:12;;;;;;;4.47;2.92;;;4.50;72.20;;;;;;5076036;28;20214;-68
2024/02/21 01:27:39;;;;;;;3.40;1.50;;;4.50;72.40;;;;;;5076163;28;20194;-68
2024/02/21 01:30:08;;;;;;;4.22;1.23;;;4.50;72.40;;;;;;5075744;28;20240;-68
2024/02/21 01:32:34;;;;;;;3.75;1.63;;;4.50;72.60;;;;;;5075493;28;20645;-69
2024/02/21 01:35:01;;;;;;;2.92;1.83;;;4.50;72.70;;;;;;5075407;28;20218;-68
2024/02/21 01:37:30;;;;;;;2.67;1.52;;;4.50;72.80;;;;;;5075881;28;20236;-68
2024/02/21 01:39:57;;;;;;;3.05;1.88;;;4.60;72.80;;;;;;5075582;28;20652;-67
2024/02/21 01:42:24;;;;;;;5.32;2.17;;;4.60;72.40;;;;;;5075529;28;20218;-68
2024/02/21 01:44:51;;;;;;;5.63;2.67;;;4.60;72.40;;;;;;5075379;28;20621;-68
2024/02/21 01:47:20;;;;;;;5.97;2.13;;;4.60;72.30;;;;;;5075378;28;20648;-68
2024/02/21 01:49:47;;;;;;;4.43;2.65;;;4.60;72.00;;;;;;5075320;28;20190;-68
2024/02/21 01:52:16;;;;;;;4.65;2.45;;;4.60;71.80;;;;;;5075664;28;20957;-68
2024/02/21 01:54:45;;;;;;;6.22;2.15;;;4.70;71.50;;;;;;5073870;28;20186;-68
2024/02/21 01:57:12;;;;;;;3.78;2.17;;;4.70;70.70;;;;;;5074692;28;20186;-68
2024/02/21 01:59:40;;;;;;;5.28;2.10;;;4.70;70.80;;;;;;5075179;28;20226;-68
2024/02/21 02:02:07;;;;;;;3.80;1.60;;;4.70;70.40;;;;;;5075439;28;20256;-68
2024/02/21 02:04:35;;;;;;;4.47;1.70;;;4.60;69.70;;;;;;5074749;28;20208;-68
2024/02/21 02:07:05;;;;;;;4.55;1.80;;;4.70;69.20;;;;;;5074971;28;20210;-68
2024/02/21 02:09:33;;;;;;;3.75;1.80;;;4.60;69.20;;;;;;5074812;28;20212;-68
2024/02/21 02:12:04;;;;;;;4.25;2.30;;;4.60;69.50;;;;;;5075210;28;20597;-68
2024/02/21 02:14:31;;;;;;;4.03;2.20;;;4.50;70.20;;;;;;5074881;28;20277;-68
2024/02/21 02:16:58;;;;;;;4.63;2.50;;;4.50;69.80;;;;;;5075112;28;20194;-68
2024/02/21 02:19:25;;;;;;;3.40;2.22;;;4.50;70.30;;;;;;5075018;28;20229;-68
2024/02/21 02:21:57;;;;;;;3.75;2.25;;;4.50;70.50;;;;;;5075058;28;20190;-68
2024/02/21 02:24:26;;;;;;;3.78;1.90;;;4.40;70.70;;;;;;5074979;28;20545;-68
2024/02/21 02:26:53;;;;;;;3.10;1.60;;;4.50;70.80;;;;;;5074890;28;20210;-68
2024/02/21 02:29:20;;;;;;;3.00;1.50;;;4.50;70.00;;;;;;5074795;28;20197;-68
2024/02/21 02:31:47;;;;;;;3.42;1.60;;;4.50;69.30;;;;;;5074573;28;20599;-68
2024/02/21 02:34:14;;;;;;;3.75;1.63;;;4.50;69.50;;;;;;5072898;28;20214;-68
2024/02/21 02:36:41;;;;;;;4.35;2.00;;;4.50;69.40;;;;;;5074384;28;20202;-68
2024/02/21 02:39:08;;;;;;;3.17;1.75;;;4.50;69.70;;;;;;5074275;28;20724;-68
2024/02/21 02:41:37;;;;;;;3.40;1.60;;;4.50;70.00;;;;;;5074108;28;20572;-68
2024/02/21 02:44:05;;;;;;;2.83;1.30;;;4.50;70.60;;;;;;5073782;28;20672;-68
2024/02/21 02:46:32;;;;;;;2.65;1.20;;;4.50;71.20;;;;;;5074332;28;20267;-68
2024/02/21 02:48:59;;;;;;;2.30;1.30;;;4.60;70.80;;;;;;5074322;28;20196;-68
2024/02/21 02:51:26;;;;;;;2.42;1.27;;;4.50;70.90;;;;;;5074457;28;20186;-68
2024/02/21 02:53:53;;;;;;;2.78;1.45;;;4.50;70.90;;;;;;5074223;28;20269;-68
2024/02/21 02:56:20;;;;;;;2.63;1.20;;;4.50;71.10;;;;;;5072970;28;20261;-68
2024/02/21 02:58:48;;;;;;;2.58;1.40;;;4.50;70.90;;;;;;5073412;28;20269;-68
2024/02/21 03:01:15;;;;;;;4.28;1.70;;;4.60;71.00;;;;;;5074269;28;20194;-68
2024/02/21 03:03:43;;;;;;;2.40;1.08;;;4.60;70.40;;;;;;5074106;28;20635;-68
2024/02/21 03:06:10;;;;;;;2.63;1.23;;;4.50;70.20;;;;;;5072945;28;20218;-68
2024/02/21 03:08:36;;;;;;;3.88;1.77;;;4.50;70.30;;;;;;5073733;28;20186;-68
2024/02/21 03:11:04;;;;;;;4.30;2.60;;;4.50;70.30;;;;;;5073943;28;20190;-68
2024/02/21 03:13:31;;;;;;;3.10;1.58;;;4.50;70.10;;;;;;5073415;28;20243;-68
2024/02/21 03:15:59;;;;;;;2.70;1.73;;;4.50;70.20;;;;;;5054063;28;20244;-68
2024/02/21 03:18:27;;;;;;;3.08;1.55;;;4.60;70.10;;;;;;5053575;28;20241;-68
2024/02/21 03:20:54;;;;;;;2.50;1.23;;;4.50;69.80;;;;;;5053636;28;20194;-68
2024/02/21 03:23:21;;;;;;;2.20;1.00;;;4.50;70.20;;;;;;5053549;28;20230;-68
2024/02/21 03:25:48;;;;;;;2.42;1.40;;;4.50;70.10;;;;;;5072165;28;20252;-68
2024/02/21 03:28:15;;;;;;;3.17;1.33;;;4.40;69.90;;;;;;5073881;28;20190;-68
2024/02/21 03:30:41;;;;;;;2.55;1.00;;;4.40;69.20;;;;;;5073888;28;20201;-68
2024/02/21 03:33:10;;;;;;;2.42;1.10;;;4.40;69.20;;;;;;5073810;28;20236;-68
2024/02/21 03:35:37;;;;;;;2.10;1.30;;;4.40;69.00;;;;;;5072915;28;20277;-68
2024/02/21 03:38:04;;;;;;;2.70;1.20;;;4.30;69.10;;;;;;5073607;28;20273;-68
2024/02/21 03:40:31;;;;;;;2.33;1.15;;;4.30;69.60;;;;;;5073705;28;20194;-68
2024/02/21 03:42:58;;;;;;;2.70;1.08;;;4.30;69.50;;;;;;5073634;28;20222;-68
2024/02/21 03:45:25;;;;;;;2.67;1.20;;;4.30;69.60;;;;;;5072858;28;20190;-68
2024/02/21 03:47:52;;;;;;;2.75;1.15;;;4.30;69.80;;;;;;5073672;28;20196;-68
2024/02/21 03:50:21;;;;;;;4.07;1.90;;;4.30;69.50;;;;;;5073714;28;20550;-68
2024/02/21 03:52:48;;;;;;;2.70;1.25;;;4.30;69.60;;;;;;5073560;28;20248;-68
2024/02/21 03:55:15;;;;;;;3.05;1.20;;;4.20;69.90;;;;;;5073272;28;20182;-68
2024/02/21 03:57:42;;;;;;;2.78;1.15;;;4.20;70.10;;;;;;5073493;28;20536;-68
2024/02/21 04:00:11;;;;;;;3.55;1.25;;;4.20;70.00;;;;;;5073493;28;20277;-68
2024/02/21 04:02:40;;;;;;;4.93;1.50;;;4.20;70.10;;;;;;5072791;28;20201;-68
2024/02/21 04:05:10;;;;;;;2.97;1.40;;;4.20;70.20;;;;;;5073154;28;20200;-68
2024/02/21 04:07:39;;;;;;;2.10;1.02;;;4.20;70.10;;;;;;5073324;28;20215;-68
2024/02/21 04:10:07;;;;;;;2.50;1.20;;;4.20;69.90;;;;;;5073342;28;20246;-68
2024/02/21 04:12:34;;;;;;;2.60;1.13;;;4.10;69.20;;;;;;5073254;28;20304;-68
2024/02/21 04:15:01;;;;;;;3.05;1.42;;;4.10;68.90;;;;;;5072870;28;20198;-68
2024/02/21 04:17:28;;;;;;;2.53;1.02;;;4.10;69.40;;;;;;5075521;28;20181;-68
2024/02/21 04:20:05;;;;;;;2.30;1.10;;;4.10;69.90;;;;;;5077052;28;20285;-68
2024/02/21 04:22:33;;;;;;;2.97;1.42;;;4.10;70.00;;;;;;5077062;28;20197;-68
2024/02/21 04:25:02;;;;;;;4.57;1.10;;;4.10;70.20;;;;;;5076721;28;20232;-68
2024/02/21 04:27:29;;;;;;;3.88;1.65;;;4.10;70.10;;;;;;5076941;28;20256;-68
2024/02/21 04:29:56;;;;;;;3.65;2.25;;;4.10;70.60;;;;;;5077351;28;20615;-68
2024/02/21 04:32:24;;;;;;;4.53;1.80;;;4.10;70.70;;;;;;5076848;28;20190;-68
2024/02/21 04:34:51;;;;;;;3.90;2.25;;;4.00;70.30;;;;;;5076005;28;20237;-68
2024/02/21 04:37:18;;;;;;;4.70;2.17;;;4.00;70.50;;;;;;5076720;28;20190;-68
2024/02/21 04:39:46;;;;;;;4.63;2.20;;;4.00;70.30;;;;;;5076851;28;20183;-68
2024/02/21 04:42:15;;;;;;;4.30;1.95;;;4.00;70.70;;;;;;5076859;28;20622;-68
2024/02/21 04:44:42;;;;;;;2.85;1.80;;;3.90;70.70;;;;;;5076331;28;20186;-68
2024/02/21 04:47:09;;;;;;;3.38;2.08;;;4.00;71.10;;;;;;5076404;28;20206;-68
2024/02/21 04:49:36;;;;;;;4.10;2.05;;;4.00;71.30;;;;;;5076739;28;20546;-67
2024/02/21 04:52:04;;;;;;;2.80;1.42;;;4.00;71.10;;;;;;5076378;28;20229;-68
2024/02/21 04:54:31;;;;;;;3.90;2.70;;;3.90;71.30;;;;;;5076509;28;20665;-68
2024/02/21 04:56:58;;;;;;;4.45;2.55;;;3.80;71.60;;;;;;5076656;28;20230;-67
2024/02/21 04:59:26;;;;;;;3.15;1.80;;;3.90;71.70;;;;;;5076769;28;20244;-67
2024/02/21 05:01:53;;;;;;;3.58;1.92;;;4.00;71.30;;;;;;5076322;28;20237;-68
2024/02/21 05:04:20;;;;;;;3.45;1.77;;;4.00;70.80;;;;;;5076228;28;20663;-68
2024/02/21 05:06:47;;;;;;;5.25;2.20;;;3.90;72.20;;;;;;5076218;28;20245;-68
2024/02/21 05:09:16;;;;;;;3.40;2.70;;;3.80;71.60;;;;;;5076485;28;20193;-68
2024/02/21 05:11:42;;;;;;;6.65;2.50;;;3.80;72.00;;;;;;5076193;28;20636;-68
2024/02/21 05:14:09;;;;;;;3.97;2.05;;;3.90;72.30;;;;;;5076400;28;20284;-68
2024/02/21 05:16:40;;;;;;;5.35;2.05;;;3.90;72.00;;;;;;5076442;28;20284;-68
2024/02/21 05:19:07;;;;;;;3.10;1.63;;;3.90;72.00;;;;;;5076035;28;20226;-68
2024/02/21 05:21:34;;;;;;;8.43;2.17;;;3.90;71.70;;;;;;5075944;28;20278;-68
2024/02/21 05:24:01;;;;;;;3.00;1.95;;;3.90;71.10;;;;;;5075883;28;20202;-68
2024/02/21 05:26:29;;;;;;;3.17;1.60;;;4.00;70.90;;;;;;5075830;28;20672;-68
2024/02/21 05:28:56;;;;;;;4.03;1.73;;;4.00;70.90;;;;;;5075249;28;20590;-68
2024/02/21 05:31:23;;;;;;;3.03;1.63;;;4.00;70.90;;;;;;5075434;28;20640;-68
2024/02/21 05:33:51;;;;;;;2.80;1.58;;;3.90;70.90;;;;;;5075628;28;20190;-68
2024/02/21 05:36:18;;;;;;;2.78;1.60;;;3.90;70.70;;;;;;5075679;28;20240;-68
2024/02/21 05:38:46;;;;;;;2.85;1.75;;;3.90;70.90;;;;;;5074108;28;20279;-68
2024/02/21 05:41:13;;;;;;;2.75;1.52;;;3.80;70.90;;;;;;5074506;28;20194;-68
2024/02/21 05:43:41;;;;;;;4.03;2.15;;;3.80;71.10;;;;;;5074549;28;20214;-68
2024/02/21 05:46:08;;;;;;;4.28;2.47;;;3.80;70.90;;;;;;5073432;28;20522;-68
2024/02/21 05:48:37;;;;;;;4.63;2.38;;;3.80;71.10;;;;;;5075803;28;20194;-68
2024/02/21 05:51:05;;;;;;;3.70;1.85;;;3.80;71.40;;;;;;5074359;28;20221;-68
2024/02/21 05:53:32;;;;;;;3.72;1.50;;;3.80;71.30;;;;;;5075049;28;20202;-68
2024/02/21 05:55:59;;;;;;;3.53;1.50;;;3.70;71.10;;;;;;5075134;28;20281;-68
2024/02/21 05:58:27;;;;;;;6.47;2.10;;;3.70;71.30;;;;;;5074883;28;20194;-68
2024/02/21 06:00:54;;;;;;;4.30;2.35;;;3.70;71.10;;;;;;5074812;28;20198;-69
2024/02/21 06:03:21;;;;;;;3.58;1.90;;;3.70;71.30;;;;;;5075164;28;20201;-68
2024/02/21 06:05:48;;;;;;;3.70;2.42;;;3.70;71.10;;;;;;5075255;28;20284;-68
2024/02/21 06:08:16;;;;;;;3.97;2.42;;;3.70;70.70;;;;;;5074354;28;20218;-69
2024/02/21 06:10:43;;;;;;;4.45;2.35;;;3.70;70.30;;;;;;5073771;28;20190;-69
2024/02/21 06:13:10;;;;;;;3.58;1.92;;;3.70;70.90;;;;;;5054265;28;20244;-69
2024/02/21 06:15:37;;;;;;;4.78;3.00;;;3.70;70.00;;;;;;5070268;28;20685;-69
2024/02/21 06:18:05;;;;;;;3.35;2.50;;;3.70;70.30;;;;;;5073965;28;20194;-68
2024/02/21 06:20:32;;;;;;;5.32;3.05;;;3.70;70.90;;;;;;5073976;28;20732;-68
2024/02/21 06:22:58;;;;;;;4.75;2.30;;;3.70;70.90;;;;;;5073945;28;20257;-68
2024/02/21 06:25:27;;;;;;;3.60;1.90;;;3.70;71.30;;;;;;5080574;28;20182;-68
2024/02/21 06:27:54;;;;;;;3.15;1.85;;;3.80;71.80;;;;;;5076326;28;20317;-69
2024/02/21 06:30:21;;;;;;;2.90;1.80;;;3.80;72.00;;;;;;5081376;28;20236;-68
2024/02/21 06:32:47;;;;;;;3.60;2.10;;;3.90;72.40;;;;;;5073644;28;20194;-69
2024/02/21 06:35:14;;;;;;;3.38;1.85;;;3.90;72.70;;;;;;5072845;28;20335;-68
2024/02/21 06:37:42;;;;;;;5.90;3.38;;;3.90;73.20;;;;;;5073890;28;20226;-69
2024/02/21 06:40:09;;;;;;;4.35;2.30;;;4.00;73.90;;;;;;5092154;28;20212;-68
2024/02/21 06:42:38;;;;;;;5.30;2.42;;;4.20;73.80;;;;;;5090142;28;20224;-68
2024/02/21 06:45:05;;;;;;;3.65;2.40;;;4.40;72.70;;;;;;5072637;28;20213;-69
2024/02/21 06:47:32;;;;;;;4.25;2.10;;;4.60;72.20;;;;;;5089921;28;20220;-69
2024/02/21 06:49:59;;;;;;;4.90;1.50;;;4.60;71.80;;;;;;5075407;28;20193;-68
2024/02/21 06:52:27;;;;;;;2.42;1.48;;;4.70;71.80;;;;;;5085188;28;20273;-68
2024/02/21 06:54:54;;;;;;;3.25;1.63;;;4.70;70.20;;;;;;5080154;28;20193;-69
2024/02/21 06:57:21;;;;;;;3.20;1.80;;;4.70;69.40;;;;;;5093332;28;20229;-68
2024/02/21 06:59:49;;;;;;;3.55;2.15;;;4.80;69.50;;;;;;5079037;28;20195;-68
2024/02/21 07:02:16;;;;;;;3.30;2.03;;;4.80;69.00;;;;;;5081752;28;20648;-68
2024/02/21 07:04:44;;;;;;;2.92;1.95;;;4.80;68.50;;;;;;5072448;28;20236;-68
2024/02/21 07:07:11;;;;;;;2.55;1.38;;;4.80;68.80;;;;;;5074066;28;20245;-69
2024/02/21 07:09:38;;;;;;;2.80;1.40;;;4.90;68.80;;;;;;5074628;28;20273;-68
2024/02/21 07:12:05;;;;;;;4.60;2.30;;;5.00;67.80;;;;;;5085346;28;20641;-69
2024/02/21 07:14:34;;;;;;;2.78;1.67;;;5.00;67.30;;;;;;5073861;28;20281;-68
2024/02/21 07:17:02;;;;;;;2.85;1.35;;;5.10;66.90;;;;;;5081029;28;20194;-69
2024/02/21 07:19:29;;;;;;;2.30;1.30;;;5.10;66.40;;;;;;5072683;28;20744;-68
2024/02/21 07:21:56;;;;;;;5.10;1.75;;;5.10;65.40;;;;;;5071285;28;20251;-68
2024/02/21 07:24:23;;;;;;;2.85;1.80;;;5.10;65.60;;;;;;5073404;28;20588;-69
2024/02/21 07:26:50;;;;;;;5.40;3.38;;;5.20;66.50;;;;;;5072479;28;20224;-69
2024/02/21 07:29:18;;;;;;;10.07;4.85;;;5.30;66.60;;;;;;5073614;28;20298;-68
2024/02/21 07:31:48;;;;;;;7.18;2.72;;;5.40;67.20;;;;;;5073534;28;20218;-68
2024/02/21 07:34:16;;;;;;;5.63;2.67;;;5.40;67.40;;;;;;5073545;28;20197;-69
2024/02/21 07:36:44;;;;;;;4.22;3.20;;;5.50;67.10;;;;;;5073477;28;20226;-69
2024/02/21 07:39:11;;;;;;;5.78;3.50;;;5.60;66.50;;;;;;5073593;28;20193;-69
2024/02/21 07:41:39;;;;;;;4.50;3.03;;;5.70;65.80;;;;;;5072961;28;20233;-68
2024/02/21 07:44:06;;;;;;;4.32;2.55;;;5.70;65.90;;;;;;5073157;28;20174;-68
2024/02/21 07:46:32;;;;;;;3.45;1.90;;;5.70;66.10;;;;;;5073076;28;20243;-68
2024/02/21 07:49:02;;;;;;;2.85;1.67;;;5.80;65.70;;;;;;5072934;28;20245;-69
2024/02/21 07:51:30;;;;;;;5.53;2.38;;;5.90;64.90;;;;;;5072540;28;20190;-69
2024/02/21 07:53:57;;;;;;;2.65;1.60;;;5.80;63.70;;;;;;5073424;28;20228;-69
2024/02/21 07:56:24;;;;;;;3.25;1.60;;;5.80;63.30;;;;;;5072984;28;20236;-69
2024/02/21 07:58:51;;;;;;;2.85;1.55;;;5.80;63.70;;;;;;5072937;28;20280;-69
2024/02/21 08:01:20;;;;;;;2.30;1.10;;;5.90;63.80;;;;;;5072930;28;20602;-69
2024/02/21 08:03:47;;;;;;;3.45;0.90;;;6.00;65.00;;;;;;5073135;28;20190;-68
2024/02/21 08:06:14;;;;;;;2.30;0.90;;;6.30;65.40;;;;;;5073251;28;20297;-69
2024/02/21 08:08:43;;;;;;;1.95;0.85;;;6.70;65.10;;;;;;5073095;28;20302;-69
2024/02/21 08:11:10;;;;;;;3.95;1.50;;;7.00;62.00;;;;;;5073013;28;20277;-69
2024/02/21 08:13:36;;;;;;;2.60;1.17;;;7.20;62.10;;;;;;5092769;28;20280;-69
2024/02/21 08:16:04;;;;;;;3.67;1.50;;;7.90;61.80;;;;;;5092603;28;20190;-69
2024/02/21 08:18:31;;;;;;;3.35;2.00;;;8.70;62.40;;;;;;5093239;28;20193;-69
2024/02/21 08:20:58;;;;;;;3.20;1.50;;;9.80;58.40;;;;;;5088841;28;20664;-70
2024/02/21 08:23:25;;;;;;;4.78;2.72;;;10.70;53.80;;;;;;5072958;28;20190;-68
2024/02/21 08:25:54;;;;;;;2.80;1.70;;;11.50;52.50;;;;;;5091427;28;20276;-68
2024/02/21 08:28:21;;;;;;;3.42;1.83;;;12.30;49.90;;;;;;5092474;28;20568;-68
2024/02/21 08:30:48;;;;;;;2.88;1.40;;;12.90;49.30;;;;;;5090796;28;20217;-68
2024/02/21 08:33:16;;;;;;;2.83;1.70;;;13.50;44.00;;;;;;5078497;28;20657;-68
2024/02/21 08:35:43;;;;;;;3.20;1.73;;;13.90;43.70;;;;;;5093251;28;20516;-69
2024/02/21 08:38:10;;;;;;;3.13;0.97;;;14.40;45.90;;;;;;5092382;28;20470;-68
2024/02/21 08:40:37;;;;;;;2.73;1.20;;;14.90;42.10;;;;;;5092784;28;20441;-68
2024/02/21 08:43:06;;;;;;;2.53;1.50;;;15.40;39.80;;;;;;5093113;28;20836;-68
2024/02/21 08:45:33;;;;;;;1.90;0.90;;;15.80;40.10;;;;;;5092701;28;20519;-68
2024/02/21 08:48:00;;;;;;;2.50;1.03;;;16.30;39.10;;;;;;5092563;28;20561;-68
2024/02/21 08:50:27;;;;;;;3.27;1.77;;;16.70;36.30;;;;;;5092661;28;20468;-68
2024/02/21 08:52:54;;;;;;;2.43;1.10;;;17.10;37.00;;;;;;5092622;28;20480;-68
2024/02/21 08:55:21;;;;;;;2.70;1.07;;;17.40;36.10;;;;;;5092971;28;20855;-68
2024/02/21 08:57:48;;;;;;;4.47;0.90;;;17.90;35.60;;;;;;5092931;28;20907;-69
2024/02/21 09:00:18;;;;;;;2.37;1.17;;;18.30;32.60;;;;;;5092916;28;20487;-69
2024/02/21 09:02:45;;;;;;;6.17;1.30;;;18.50;32.60;;;;;;5093004;28;20502;-69
2024/02/21 09:05:12;;;;;;;2.30;1.00;;;18.90;32.60;;;;;;5096022;28;20842;-69
2024/02/21 09:07:39;;;;;;;3.20;1.30;;;19.30;32.40;;;;;;5096370;28;20561;-69
2024/02/21 09:10:07;;;;;;;2.13;0.83;;;19.70;31.40;;;;;;5096514;28;20514;-69
2024/02/21 09:12:34;;;;;;;2.27;0.97;;;20.20;30.40;;;;;;5096413;28;20431;-69
2024/02/21 09:15:01;;;;;;;4.97;1.00;;;20.50;30.00;;;;;;5096342;28;20854;-69
2024/02/21 09:17:30;;;;;;;3.10;1.20;;;20.80;29.30;;;;;;5096011;28;20442;-69
2024/02/21 09:19:59;;;;;;;2.30;0.90;;;21.00;28.70;;;;;;5095895;28;20905;-69
2024/02/21 09:22:26;;;;;;;2.30;0.70;;;21.20;28.50;;;;;;5096290;28;20435;-69
2024/02/21 09:24:53;;;;;;;2.20;0.80;;;21.40;27.00;;;;;;5095956;28;20623;-69
2024/02/21 09:27:20;;;;;;;2.73;1.10;;;21.60;27.70;;;;;;5096140;28;20484;-68
2024/02/21 09:29:47;;;;;;;3.23;0.90;;;21.80;26.70;;;;;;5096142;28;20522;-69
2024/02/21 09:32:14;;;;;;;3.50;1.30;;;22.00;26.50;;;;;;5095757;28;20522;-69
2024/02/21 09:34:42;;;;;;;2.60;1.30;;;22.10;25.20;;;;;;5096003;28;20435;-69
2024/02/21 09:37:09;;;;;;;3.27;1.40;;;22.10;25.10;;;;;;5096072;28;20423;-69
2024/02/21 09:39:36;;;;;;;3.13;1.40;;;22.20;26.10;;;;;;5095984;28;20854;-69
2024/02/21 09:42:07;;;;;;;2.47;0.93;;;22.50;25.20;;;;;;5095310;28;20516;-69
2024/02/21 09:44:38;;;;;;;2.93;1.33;;;22.90;25.90;;;;;;5095862;28;20451;-69
2024/02/21 09:47:08;;;;;;;2.40;1.17;;;23.30;25.60;;;;;;5095781;28;20481;-68
2024/02/21 09:49:37;;;;;;;2.33;1.10;;;23.60;24.60;;;;;;5095690;28;20479;-69
2024/02/21 09:52:13;;;;;;;2.50;1.10;;;23.80;24.40;;;;;;5095328;28;20438;-69
2024/02/21 09:54:44;;;;;;;3.20;0.90;;;24.20;23.90;;;;;;5095651;28;20465;-69
2024/02/21 09:57:11;;;;;;;3.50;0.93;;;24.50;23.00;;;;;;5095739;28;20454;-69
2024/02/21 09:59:38;;;;;;;2.50;1.10;;;24.60;23.00;;;;;;5095590;28;20515;-68
2024/02/21 10:02:06;;;;;;;5.63;1.70;;;24.60;22.80;;;;;;5095057;28;20462;-70
2024/02/21 10:04:33;;;;;;;2.77;1.10;;;24.70;23.20;;;;;;5095472;28;20432;-68
2024/02/21 10:07:00;;;;;;;2.77;1.20;;;24.80;23.20;;;;;;5095515;28;20462;-68
2024/02/21 10:09:29;;;;;;;2.77;1.10;;;25.00;21.20;;;;;;5095157;28;20498;-68
2024/02/21 10:11:57;;;;;;;2.73;0.93;;;24.90;20.80;;;;;;5095226;28;20435;-68
2024/02/21 10:14:24;;;;;;;2.50;1.00;;;24.90;21.30;;;;;;5094474;28;20469;-68
2024/02/21 10:16:58;;;;;;;2.80;1.10;;;24.90;21.10;;;;;;5091900;28;20518;-68
2024/02/21 10:19:25;;;;;;;4.33;1.20;;;25.00;21.60;;;;;;5094436;28;20431;-68
2024/02/21 10:22:04;;;;;;;3.07;1.33;;;25.00;20.40;;;;;;5094786;28;20496;-67
2024/02/21 10:24:33;;;;;;;3.23;1.10;;;24.90;20.60;;;;;;5094650;28;20526;-69
2024/02/21 10:27:03;;;;;;;3.40;1.40;;;24.80;21.90;;;;;;5094601;28;20514;-68
2024/02/21 10:29:30;;;;;;;2.77;1.30;;;24.70;20.90;;;;;;5094856;28;20466;-68
2024/02/21 10:32:09;;;;;;;3.20;1.03;;;24.50;20.30;;;;;;5094912;28;20527;-68
2024/02/21 10:34:36;;;;;;;2.47;1.10;;;24.30;19.80;;;;;;5094950;28;20423;-69
2024/02/21 10:37:04;;;;;;;2.00;0.80;;;24.10;20.30;;;;;;5094847;28;20674;-68
2024/02/21 10:39:33;;;;;;;3.70;0.70;;;24.00;21.30;;;;;;5094783;28;20435;-68
2024/02/21 10:42:03;;;;;;;1.97;0.77;;;23.80;20.70;;;;;;5094094;28;20805;-68
2024/02/21 10:44:31;;;;;;;2.00;0.73;;;23.40;21.10;;;;;;5094325;28;20420;-68
2024/02/21 10:46:58;;;;;;;2.27;1.10;;;23.20;21.40;;;;;;5094224;28;20803;-68
2024/02/21 10:49:27;;;;;;;3.40;0.70;;;23.20;21.40;;;;;;5094166;28;20506;-68
2024/02/21 10:51:58;;;;;;;3.03;0.70;;;23.30;22.00;;;;;;5094185;28;20470;-68
2024/02/21 10:54:40;;;;;;;2.13;0.77;;;23.40;21.20;;;;;;5094200;28;20427;-68
2024/02/21 10:57:09;;;;;;;3.00;0.77;;;23.30;21.50;;;;;;5094446;28;20451;-69
2024/02/21 10:59:38;;;;;;;2.30;0.70;;;23.40;21.30;;;;;;5094023;28;20437;-69
2024/02/21 11:02:05;;;;;;;1.83;0.60;;;23.40;21.30;;;;;;5094051;28;20471;-69
2024/02/21 11:04:36;;;;;;;2.10;0.70;;;23.40;21.60;;;;;;5094538;28;20505;-69
2024/02/21 11:07:04;;;;;;;3.40;0.80;;;23.40;21.30;;;;;;5094030;28;20423;-68
2024/02/21 11:09:33;;;;;;;2.17;0.70;;;23.20;20.50;;;;;;5094275;28;20573;-68
2024/02/21 11:12:04;;;;;;;3.07;1.13;;;22.90;20.60;;;;;;5093900;28;20999;-68
2024/02/21 11:14:35;;;;;;;3.30;0.70;;;22.80;20.90;;;;;;5093826;28;20449;-68
2024/02/21 11:17:03;;;;;;;2.00;0.90;;;22.70;21.40;;;;;;5093759;28;20411;-68
2024/02/21 11:19:31;;;;;;;2.23;0.73;;;22.70;20.80;;;;;;5093756;28;20424;-68
2024/02/21 11:22:01;;;;;;;2.33;0.73;;;22.60;20.10;;;;;;5093945;28;20435;-68
2024/02/21 11:24:29;;;;;;;2.47;0.70;;;22.50;20.30;;;;;;5093930;28;20431;-68
2024/02/21 11:26:57;;;;;;;3.90;0.80;;;22.50;20.50;;;;;;5093197;28;20427;-69
2024/02/21 11:29:28;;;;;;;2.77;0.60;;;22.50;19.60;;;;;;5093938;28;20557;-68
2024/02/21 11:31:56;;;;;;;2.97;1.07;;;22.30;20.00;;;;;;5093478;28;20446;-68
2024/02/21 11:34:23;;;;;;;2.00;0.60;;;22.10;18.60;;;;;;5093846;28;20842;-68
2024/02/21 11:36:51;;;;;;;3.00;0.70;;;21.80;19.30;;;;;;5093801;28;20484;-68
2024/02/21 11:39:22;;;;;;;1.93;0.60;;;21.60;18.60;;;;;;5093428;28;20998;-70
2024/02/21 11:42:04;;;;;;;5.90;0.60;;;21.50;19.20;;;;;;5093407;28;20848;-69
2024/02/21 11:44:32;;;;;;;2.10;0.60;;;21.50;19.90;;;;;;5093698;28;20448;-68
2024/02/21 11:46:59;;;;;;;2.07;0.60;;;21.50;20.00;;;;;;5093134;28;20430;-68
2024/02/21 11:49:30;;;;;;;2.63;1.33;;;21.60;19.80;;;;;;5093532;28;20502;-68
2024/02/21 11:52:03;;;;;;;1.80;0.50;;;21.70;19.20;;;;;;5093320;28;20912;-69
2024/02/21 11:54:35;;;;;;;3.03;0.60;;;21.90;20.00;;;;;;5093607;28;20419;-69
2024/02/21 11:57:04;;;;;;;1.80;0.57;;;22.20;19.80;;;;;;5093740;28;20458;-69
2024/02/21 11:59:33;;;;;;;2.00;0.60;;;22.40;19.60;;;;;;5082950;28;20458;-68
2024/02/21 12:02:00;;;;;;;1.83;0.50;;;22.60;17.10;;;;;;5073805;28;21001;-68
2024/02/21 12:04:28;;;;;;;1.80;0.60;;;22.70;17.40;;;;;;5087837;28;20471;-68
2024/02/21 12:06:55;;;;;;;1.83;0.50;;;22.70;18.90;;;;;;5079104;28;20441;-67
2024/02/21 12:09:24;;;;;;;3.50;0.80;;;22.90;18.00;;;;;;5087002;28;20487;-67
2024/02/21 12:11:59;;;;;;;2.20;0.60;;;23.10;18.60;;;;;;5083904;28;20775;-68
2024/02/21 12:14:27;;;;;;;2.90;0.70;;;23.30;18.60;;;;;;5092711;28;20463;-68
2024/02/21 12:16:56;;;;;;;2.37;0.60;;;23.60;18.20;;;;;;5093040;28;20474;-69
2024/02/21 12:19:23;;;;;;;1.80;0.50;;;23.90;16.60;;;;;;5092845;28;20527;-69
2024/02/21 12:21:50;;;;;;;1.90;0.50;;;24.00;16.70;;;;;;5079704;28;20535;-68
2024/02/21 12:24:22;;;;;;;1.70;0.50;;;24.20;16.10;;;;;;5072966;28;20458;-68
2024/02/21 12:26:49;;;;;;;2.20;0.60;;;24.30;16.90;;;;;;5070943;28;20478;-68
2024/02/21 12:29:16;;;;;;;2.43;1.03;;;24.60;17.40;;;;;;5079249;28;20559;-69
2024/02/21 12:31:48;;;;;;;3.70;0.70;;;24.80;16.40;;;;;;5092920;28;20837;-68
2024/02/21 12:34:17;;;;;;;1.90;0.60;;;24.90;16.60;;;;;;5092380;28;20897;-68
2024/02/21 12:36:47;;;;;;;2.20;0.70;;;25.10;16.60;;;;;;5092936;28;20449;-68
2024/02/21 12:39:14;;;;;;;1.87;0.53;;;25.10;15.50;;;;;;5095216;28;20435;-68
2024/02/21 12:41:43;;;;;;;3.03;0.70;;;25.20;15.90;;;;;;5082284;28;20533;-68
2024/02/21 12:44:14;;;;;;;2.10;0.80;;;25.20;17.00;;;;;;5075578;28;20432;-69
2024/02/21 12:46:42;;;;;;;1.97;0.70;;;25.10;16.20;;;;;;5076774;28;20416;-68
2024/02/21 12:49:09;;;;;;;2.67;0.80;;;25.00;16.30;;;;;;5076203;28;20468;-68
2024/02/21 12:51:39;;;;;;;2.20;0.90;;;24.90;15.70;;;;;;5075766;28;20926;-68
2024/02/21 12:54:11;;;;;;;2.00;0.50;;;24.80;15.90;;;;;;5076797;28;20504;-68
2024/02/21 12:56:38;;;;;;;2.10;0.80;;;24.70;16.60;;;;;;5075247;28;20429;-68